sensor_id;sensor_type;location;lat;lon;timestamp;temperature;humidity
21891;DHT22;11110;52.386;16.940;2022-09-09T00:01:05;31.00;51.80
21891;DHT22;11110;52.386;16.940;2022-09-09T00:03:43;31.00;51.80
21891;DHT22;11110;52.386;16.940;2022-09-09T00:06:18;31.00;51.80
21891;DHT22;11110;52.386;16.940;2022-09-09T00:09:02;31.00;51.70
21891;DHT22;11110;52.386;16.940;2022-09-09T00:11:40;31.10;51.70
21891;DHT22;11110;52.386;16.940;2022-09-09T00:14:14;31.00;51.70
21891;DHT22;11110;52.386;16.940;2022-09-09T00:16:50;31.00;51.70
21891;DHT22;11110;52.386;16.940;2022-09-09T00:19:23;31.00;51.60
21891;DHT22;11110;52.386;16.940;2022-09-09T00:22:00;31.00;51.60
21891;DHT22;11110;52.386;16.940;2022-09-09T00:24:40;31.00;51.60
21891;DHT22;11110;52.386;16.940;2022-09-09T00:27:16;31.00;51.60
21891;DHT22;11110;52.386;16.940;2022-09-09T00:29:47;31.00;51.60
21891;DHT22;11110;52.386;16.940;2022-09-09T00:32:21;30.90;51.60
21891;DHT22;11110;52.386;16.940;2022-09-09T00:34:53;30.90;51.60
21891;DHT22;11110;52.386;16.940;2022-09-09T00:37:25;30.80;51.60
21891;DHT22;11110;52.386;16.940;2022-09-09T00:39:58;30.90;51.60
21891;DHT22;11110;52.386;16.940;2022-09-09T00:42:35;30.90;51.40
21891;DHT22;11110;52.386;16.940;2022-09-09T00:45:19;30.90;51.50
21891;DHT22;11110;52.386;16.940;2022-09-09T00:47:53;31.00;51.50
21891;DHT22;11110;52.386;16.940;2022-09-09T00:50:33;30.90;51.50
21891;DHT22;11110;52.386;16.940;2022-09-09T00:53:14;31.00;51.50
21891;DHT22;11110;52.386;16.940;2022-09-09T00:55:49;30.90;51.40
21891;DHT22;11110;52.386;16.940;2022-09-09T00:58:22;30.90;51.40
21891;DHT22;11110;52.386;16.940;2022-09-09T01:00:54;30.90;51.40
21891;DHT22;11110;52.386;16.940;2022-09-09T01:03:31;30.90;51.40
21891;DHT22;11110;52.386;16.940;2022-09-09T01:06:11;30.90;51.40
21891;DHT22;11110;52.386;16.940;2022-09-09T01:11:52;31.00;52.00
21891;DHT22;11110;52.386;16.940;2022-09-09T01:14:40;30.90;51.20
21891;DHT22;11110;52.386;16.940;2022-09-09T01:17:14;31.00;51.10
21891;DHT22;11110;52.386;16.940;2022-09-09T01:19:57;31.00;50.90
21891;DHT22;11110;52.386;16.940;2022-09-09T01:22:34;31.00;50.70
21891;DHT22;11110;52.386;16.940;2022-09-09T01:25:19;31.10;50.70
21891;DHT22;11110;52.386;16.940;2022-09-09T01:28:02;31.00;50.70
21891;DHT22;11110;52.386;16.940;2022-09-09T01:30:33;31.00;50.60
21891;DHT22;11110;52.386;16.940;2022-09-09T01:33:03;31.00;50.80
21891;DHT22;11110;52.386;16.940;2022-09-09T01:35:42;31.00;50.60
21891;DHT22;11110;52.386;16.940;2022-09-09T01:38:12;31.00;50.60
21891;DHT22;11110;52.386;16.940;2022-09-09T01:40:41;31.00;50.90
21891;DHT22;11110;52.386;16.940;2022-09-09T01:43:11;31.00;50.50
21891;DHT22;11110;52.386;16.940;2022-09-09T01:45:41;31.00;50.30
21891;DHT22;11110;52.386;16.940;2022-09-09T01:48:10;31.00;50.20
21891;DHT22;11110;52.386;16.940;2022-09-09T01:50:44;31.00;50.40
21891;DHT22;11110;52.386;16.940;2022-09-09T01:53:15;31.00;50.40
21891;DHT22;11110;52.386;16.940;2022-09-09T01:55:50;31.00;50.30
21891;DHT22;11110;52.386;16.940;2022-09-09T01:58:31;31.00;50.10
21891;DHT22;11110;52.386;16.940;2022-09-09T02:01:06;31.00;50.20
21891;DHT22;11110;52.386;16.940;2022-09-09T02:03:37;31.00;50.10
21891;DHT22;11110;52.386;16.940;2022-09-09T02:06:25;31.00;50.20
21891;DHT22;11110;52.386;16.940;2022-09-09T02:09:04;31.00;50.10
21891;DHT22;11110;52.386;16.940;2022-09-09T02:11:33;30.90;50.20
21891;DHT22;11110;52.386;16.940;2022-09-09T02:14:16;30.90;50.30
21891;DHT22;11110;52.386;16.940;2022-09-09T02:16:51;31.00;50.30
21891;DHT22;11110;52.386;16.940;2022-09-09T02:19:28;30.90;50.20
21891;DHT22;11110;52.386;16.940;2022-09-09T02:22:13;30.90;50.20
21891;DHT22;11110;52.386;16.940;2022-09-09T02:24:41;30.80;50.10
21891;DHT22;11110;52.386;16.940;2022-09-09T02:27:20;30.80;50.10
21891;DHT22;11110;52.386;16.940;2022-09-09T02:29:52;30.70;50.00
21891;DHT22;11110;52.386;16.940;2022-09-09T02:32:35;30.70;50.00
21891;DHT22;11110;52.386;16.940;2022-09-09T02:35:09;30.70;50.00
21891;DHT22;11110;52.386;16.940;2022-09-09T02:37:42;30.70;50.00
21891;DHT22;11110;52.386;16.940;2022-09-09T02:40:14;30.60;50.00
21891;DHT22;11110;52.386;16.940;2022-09-09T02:42:49;30.50;49.80
21891;DHT22;11110;52.386;16.940;2022-09-09T02:45:24;30.60;49.90
21891;DHT22;11110;52.386;16.940;2022-09-09T02:48:01;30.70;49.90
21891;DHT22;11110;52.386;16.940;2022-09-09T02:50:34;30.60;49.90
21891;DHT22;11110;52.386;16.940;2022-09-09T02:53:10;30.60;50.60
21891;DHT22;11110;52.386;16.940;2022-09-09T02:55:46;30.60;49.90
21891;DHT22;11110;52.386;16.940;2022-09-09T02:58:18;30.60;49.80
21891;DHT22;11110;52.386;16.940;2022-09-09T03:00:57;30.60;49.80
21891;DHT22;11110;52.386;16.940;2022-09-09T03:03:27;30.50;49.60
21891;DHT22;11110;52.386;16.940;2022-09-09T03:05:55;30.50;49.80
21891;DHT22;11110;52.386;16.940;2022-09-09T03:08:26;30.50;49.80
21891;DHT22;11110;52.386;16.940;2022-09-09T03:10:58;30.50;49.70
21891;DHT22;11110;52.386;16.940;2022-09-09T03:13:30;30.50;49.80
21891;DHT22;11110;52.386;16.940;2022-09-09T03:16:00;30.40;49.40
21891;DHT22;11110;52.386;16.940;2022-09-09T03:18:32;30.50;49.60
21891;DHT22;11110;52.386;16.940;2022-09-09T03:21:01;30.50;49.60
21891;DHT22;11110;52.386;16.940;2022-09-09T03:23:29;30.40;49.60
21891;DHT22;11110;52.386;16.940;2022-09-09T03:26:01;30.40;49.60
21891;DHT22;11110;52.386;16.940;2022-09-09T03:28:39;30.40;49.60
21891;DHT22;11110;52.386;16.940;2022-09-09T03:31:09;30.40;49.60
21891;DHT22;11110;52.386;16.940;2022-09-09T03:33:40;30.40;49.70
21891;DHT22;11110;52.386;16.940;2022-09-09T03:36:12;30.20;49.60
21891;DHT22;11110;52.386;16.940;2022-09-09T03:38:41;30.30;49.70
21891;DHT22;11110;52.386;16.940;2022-09-09T03:41:10;30.20;49.70
21891;DHT22;11110;52.386;16.940;2022-09-09T03:43:40;30.20;49.70
21891;DHT22;11110;52.386;16.940;2022-09-09T03:46:10;30.20;49.80
21891;DHT22;11110;52.386;16.940;2022-09-09T03:48:38;30.20;49.70
21891;DHT22;11110;52.386;16.940;2022-09-09T03:51:07;30.30;49.90
21891;DHT22;11110;52.386;16.940;2022-09-09T03:53:35;30.20;49.70
21891;DHT22;11110;52.386;16.940;2022-09-09T03:56:06;30.20;49.90
21891;DHT22;11110;52.386;16.940;2022-09-09T03:58:35;30.30;50.50
21891;DHT22;11110;52.386;16.940;2022-09-09T04:01:08;30.20;49.80
21891;DHT22;11110;52.386;16.940;2022-09-09T04:03:40;30.30;49.90
21891;DHT22;11110;52.386;16.940;2022-09-09T04:06:11;30.20;49.80
21891;DHT22;11110;52.386;16.940;2022-09-09T04:08:41;30.20;49.70
21891;DHT22;11110;52.386;16.940;2022-09-09T04:11:13;30.10;49.60
21891;DHT22;11110;52.386;16.940;2022-09-09T04:13:43;30.10;49.60
21891;DHT22;11110;52.386;16.940;2022-09-09T04:16:13;30.10;49.60
21891;DHT22;11110;52.386;16.940;2022-09-09T04:18:44;30.10;49.70
21891;DHT22;11110;52.386;16.940;2022-09-09T04:21:14;30.10;49.80
21891;DHT22;11110;52.386;16.940;2022-09-09T04:23:44;30.00;49.70
21891;DHT22;11110;52.386;16.940;2022-09-09T04:26:12;30.00;49.80
21891;DHT22;11110;52.386;16.940;2022-09-09T04:28:40;30.00;49.80
21891;DHT22;11110;52.386;16.940;2022-09-09T04:31:17;30.00;49.90
21891;DHT22;11110;52.386;16.940;2022-09-09T04:33:50;30.00;49.90
21891;DHT22;11110;52.386;16.940;2022-09-09T04:36:19;29.90;49.90
21891;DHT22;11110;52.386;16.940;2022-09-09T04:38:49;29.90;50.00
21891;DHT22;11110;52.386;16.940;2022-09-09T04:41:18;29.90;50.00
21891;DHT22;11110;52.386;16.940;2022-09-09T04:43:49;29.90;50.00
21891;DHT22;11110;52.386;16.940;2022-09-09T04:46:21;29.80;50.00
21891;DHT22;11110;52.386;16.940;2022-09-09T04:48:52;29.90;50.10
21891;DHT22;11110;52.386;16.940;2022-09-09T04:51:25;29.90;50.10
21891;DHT22;11110;52.386;16.940;2022-09-09T04:53:54;29.90;50.10
21891;DHT22;11110;52.386;16.940;2022-09-09T04:56:23;29.80;50.00
21891;DHT22;11110;52.386;16.940;2022-09-09T04:58:56;29.90;50.10
21891;DHT22;11110;52.386;16.940;2022-09-09T05:01:37;29.90;50.10
21891;DHT22;11110;52.386;16.940;2022-09-09T05:04:07;30.00;50.00
21891;DHT22;11110;52.386;16.940;2022-09-09T05:06:35;29.90;50.20
21891;DHT22;11110;52.386;16.940;2022-09-09T05:09:04;29.90;50.10
21891;DHT22;11110;52.386;16.940;2022-09-09T05:11:34;29.80;50.30
21891;DHT22;11110;52.386;16.940;2022-09-09T05:14:16;30.90;50.90
21891;DHT22;11110;52.386;16.940;2022-09-09T05:16:45;29.90;50.80
21891;DHT22;11110;52.386;16.940;2022-09-09T05:19:15;29.90;50.50
21891;DHT22;11110;52.386;16.940;2022-09-09T05:21:49;29.90;50.50
21891;DHT22;11110;52.386;16.940;2022-09-09T05:24:22;29.90;50.50
21891;DHT22;11110;52.386;16.940;2022-09-09T05:26:54;29.90;50.50
21891;DHT22;11110;52.386;16.940;2022-09-09T05:29:27;29.90;50.40
21891;DHT22;11110;52.386;16.940;2022-09-09T05:31:56;29.90;50.60
21891;DHT22;11110;52.386;16.940;2022-09-09T05:34:26;30.00;50.70
21891;DHT22;11110;52.386;16.940;2022-09-09T05:36:54;29.90;50.50
21891;DHT22;11110;52.386;16.940;2022-09-09T05:39:24;29.90;50.30
21891;DHT22;11110;52.386;16.940;2022-09-09T05:41:53;29.90;50.20
21891;DHT22;11110;52.386;16.940;2022-09-09T05:44:22;29.90;50.40
21891;DHT22;11110;52.386;16.940;2022-09-09T05:46:54;30.00;50.20
21891;DHT22;11110;52.386;16.940;2022-09-09T05:49:26;30.00;50.50
21891;DHT22;11110;52.386;16.940;2022-09-09T05:51:55;29.90;50.40
21891;DHT22;11110;52.386;16.940;2022-09-09T05:54:24;29.90;50.40
21891;DHT22;11110;52.386;16.940;2022-09-09T05:56:54;29.90;50.70
21891;DHT22;11110;52.386;16.940;2022-09-09T05:59:22;29.90;50.90
21891;DHT22;11110;52.386;16.940;2022-09-09T06:01:53;29.90;51.20
21891;DHT22;11110;52.386;16.940;2022-09-09T06:04:32;29.90;51.20
21891;DHT22;11110;52.386;16.940;2022-09-09T06:07:01;29.90;51.10
21891;DHT22;11110;52.386;16.940;2022-09-09T06:09:30;29.90;51.10
21891;DHT22;11110;52.386;16.940;2022-09-09T06:11:58;29.80;51.20
21891;DHT22;11110;52.386;16.940;2022-09-09T06:14:27;29.80;51.30
21891;DHT22;11110;52.386;16.940;2022-09-09T06:16:58;29.90;51.30
21891;DHT22;11110;52.386;16.940;2022-09-09T06:19:29;29.80;51.20
21891;DHT22;11110;52.386;16.940;2022-09-09T06:22:00;29.90;51.20
21891;DHT22;11110;52.386;16.940;2022-09-09T06:24:31;29.90;51.40
21891;DHT22;11110;52.386;16.940;2022-09-09T06:27:01;29.90;51.50
21891;DHT22;11110;52.386;16.940;2022-09-09T06:29:33;29.90;52.20
21891;DHT22;11110;52.386;16.940;2022-09-09T06:32:02;29.80;51.70
21891;DHT22;11110;52.386;16.940;2022-09-09T06:34:31;29.90;51.70
21891;DHT22;11110;52.386;16.940;2022-09-09T06:37:01;29.90;51.70
21891;DHT22;11110;52.386;16.940;2022-09-09T06:39:36;29.90;51.40
21891;DHT22;11110;52.386;16.940;2022-09-09T06:42:05;29.90;51.30
21891;DHT22;11110;52.386;16.940;2022-09-09T06:44:57;29.90;51.40
21891;DHT22;11110;52.386;16.940;2022-09-09T06:47:36;29.90;51.60
21891;DHT22;11110;52.386;16.940;2022-09-09T06:50:05;30.00;51.60
21891;DHT22;11110;52.386;16.940;2022-09-09T06:52:37;30.00;51.60
21891;DHT22;11110;52.386;16.940;2022-09-09T06:55:08;30.00;51.50
21891;DHT22;11110;52.386;16.940;2022-09-09T06:57:37;30.00;51.40
21891;DHT22;11110;52.386;16.940;2022-09-09T07:00:12;30.00;51.20
21891;DHT22;11110;52.386;16.940;2022-09-09T07:02:41;30.10;51.30
21891;DHT22;11110;52.386;16.940;2022-09-09T07:05:11;30.10;51.20
21891;DHT22;11110;52.386;16.940;2022-09-09T07:07:43;30.10;51.20
21891;DHT22;11110;52.386;16.940;2022-09-09T07:10:13;30.10;51.30
21891;DHT22;11110;52.386;16.940;2022-09-09T07:12:43;30.10;51.50
21891;DHT22;11110;52.386;16.940;2022-09-09T07:15:12;30.10;51.20
21891;DHT22;11110;52.386;16.940;2022-09-09T07:17:44;30.10;51.20
21891;DHT22;11110;52.386;16.940;2022-09-09T07:20:14;30.10;51.00
21891;DHT22;11110;52.386;16.940;2022-09-09T07:22:44;30.10;50.90
21891;DHT22;11110;52.386;16.940;2022-09-09T07:25:13;30.20;51.10
21891;DHT22;11110;52.386;16.940;2022-09-09T07:27:44;29.30;50.40
21891;DHT22;11110;52.386;16.940;2022-09-09T07:30:12;30.20;50.80
21891;DHT22;11110;52.386;16.940;2022-09-09T07:32:51;30.20;50.60
21891;DHT22;11110;52.386;16.940;2022-09-09T07:35:19;30.20;50.60
21891;DHT22;11110;52.386;16.940;2022-09-09T07:37:49;30.20;50.70
21891;DHT22;11110;52.386;16.940;2022-09-09T07:40:19;30.30;50.80
21891;DHT22;11110;52.386;16.940;2022-09-09T07:42:48;30.30;50.80
21891;DHT22;11110;52.386;16.940;2022-09-09T07:45:17;30.30;50.80
21891;DHT22;11110;52.386;16.940;2022-09-09T07:47:45;30.30;50.80
21891;DHT22;11110;52.386;16.940;2022-09-09T07:50:15;30.30;50.80
21891;DHT22;11110;52.386;16.940;2022-09-09T07:52:44;30.30;50.80
21891;DHT22;11110;52.386;16.940;2022-09-09T07:55:13;30.40;50.80
21891;DHT22;11110;52.386;16.940;2022-09-09T07:57:42;30.40;50.80
21891;DHT22;11110;52.386;16.940;2022-09-09T08:00:12;30.40;51.20
21891;DHT22;11110;52.386;16.940;2022-09-09T08:02:46;30.40;51.10
21891;DHT22;11110;52.386;16.940;2022-09-09T08:05:15;30.40;51.60
21891;DHT22;11110;52.386;16.940;2022-09-09T08:07:45;30.40;51.00
21891;DHT22;11110;52.386;16.940;2022-09-09T08:10:16;30.40;51.10
21891;DHT22;11110;52.386;16.940;2022-09-09T08:12:47;30.50;50.90
21891;DHT22;11110;52.386;16.940;2022-09-09T08:15:36;30.50;50.90
21891;DHT22;11110;52.386;16.940;2022-09-09T08:18:04;30.50;51.10
21891;DHT22;11110;52.386;16.940;2022-09-09T08:20:36;30.50;51.00
21891;DHT22;11110;52.386;16.940;2022-09-09T08:23:04;30.60;51.20
21891;DHT22;11110;52.386;16.940;2022-09-09T08:25:35;30.60;51.20
21891;DHT22;11110;52.386;16.940;2022-09-09T08:28:03;30.60;51.00
21891;DHT22;11110;52.386;16.940;2022-09-09T08:30:31;30.60;50.80
21891;DHT22;11110;52.386;16.940;2022-09-09T08:33:00;30.70;51.00
21891;DHT22;11110;52.386;16.940;2022-09-09T08:35:29;30.80;50.90
21891;DHT22;11110;52.386;16.940;2022-09-09T08:38:00;30.70;50.70
21891;DHT22;11110;52.386;16.940;2022-09-09T08:40:38;30.70;50.60
21891;DHT22;11110;52.386;16.940;2022-09-09T08:43:11;30.80;50.80
21891;DHT22;11110;52.386;16.940;2022-09-09T08:45:50;30.70;50.60
21891;DHT22;11110;52.386;16.940;2022-09-09T08:48:39;30.70;50.60
21891;DHT22;11110;52.386;16.940;2022-09-09T08:51:12;30.90;51.00
21891;DHT22;11110;52.386;16.940;2022-09-09T08:53:44;30.90;50.90
21891;DHT22;11110;52.386;16.940;2022-09-09T08:56:18;30.90;50.60
21891;DHT22;11110;52.386;16.940;2022-09-09T08:58:53;30.90;50.00
21891;DHT22;11110;52.386;16.940;2022-09-09T09:01:50;31.00;49.90
21891;DHT22;11110;52.386;16.940;2022-09-09T09:04:46;31.00;49.70
21891;DHT22;11110;52.386;16.940;2022-09-09T09:07:25;31.00;49.40
21891;DHT22;11110;52.386;16.940;2022-09-09T09:10:03;31.00;49.20
21891;DHT22;11110;52.386;16.940;2022-09-09T09:12:55;31.00;49.10
21891;DHT22;11110;52.386;16.940;2022-09-09T09:15:25;31.10;49.40
21891;DHT22;11110;52.386;16.940;2022-09-09T09:17:59;31.10;50.00
21891;DHT22;11110;52.386;16.940;2022-09-09T09:20:34;31.10;50.40
21891;DHT22;11110;52.386;16.940;2022-09-09T09:23:15;31.20;49.80
21891;DHT22;11110;52.386;16.940;2022-09-09T09:25:47;31.20;49.70
21891;DHT22;11110;52.386;16.940;2022-09-09T09:28:24;31.20;50.20
21891;DHT22;11110;52.386;16.940;2022-09-09T09:31:01;31.40;50.20
21891;DHT22;11110;52.386;16.940;2022-09-09T09:33:36;31.40;50.10
21891;DHT22;11110;52.386;16.940;2022-09-09T09:36:08;31.40;49.70
21891;DHT22;11110;52.386;16.940;2022-09-09T09:38:40;31.40;49.80
21891;DHT22;11110;52.386;16.940;2022-09-09T09:41:32;31.40;49.20
21891;DHT22;11110;52.386;16.940;2022-09-09T09:44:23;31.40;49.20
21891;DHT22;11110;52.386;16.940;2022-09-09T09:46:52;31.60;49.00
21891;DHT22;11110;52.386;16.940;2022-09-09T09:49:21;31.60;48.80
21891;DHT22;11110;52.386;16.940;2022-09-09T09:51:50;31.60;48.40
21891;DHT22;11110;52.386;16.940;2022-09-09T09:54:22;31.70;48.60
21891;DHT22;11110;52.386;16.940;2022-09-09T09:57:08;31.70;48.80
21891;DHT22;11110;52.386;16.940;2022-09-09T09:59:38;31.80;48.80
21891;DHT22;11110;52.386;16.940;2022-09-09T10:02:24;31.80;48.80
21891;DHT22;11110;52.386;16.940;2022-09-09T10:05:03;31.90;48.20
21891;DHT22;11110;52.386;16.940;2022-09-09T10:07:33;32.00;48.50
21891;DHT22;11110;52.386;16.940;2022-09-09T10:10:05;32.00;48.30
21891;DHT22;11110;52.386;16.940;2022-09-09T10:12:45;32.00;47.50
21891;DHT22;11110;52.386;16.940;2022-09-09T10:15:30;32.00;47.40
21891;DHT22;11110;52.386;16.940;2022-09-09T10:18:13;32.10;47.90
21891;DHT22;11110;52.386;16.940;2022-09-09T10:20:52;32.10;47.90
21891;DHT22;11110;52.386;16.940;2022-09-09T10:23:37;32.20;48.10
21891;DHT22;11110;52.386;16.940;2022-09-09T10:26:22;32.20;47.50
21891;DHT22;11110;52.386;16.940;2022-09-09T10:29:08;32.20;46.60
21891;DHT22;11110;52.386;16.940;2022-09-09T10:31:45;32.30;46.90
21891;DHT22;11110;52.386;16.940;2022-09-09T10:34:37;32.30;47.00
21891;DHT22;11110;52.386;16.940;2022-09-09T10:37:18;32.30;46.30
21891;DHT22;11110;52.386;16.940;2022-09-09T10:39:59;32.40;46.30
21891;DHT22;11110;52.386;16.940;2022-09-09T10:42:31;32.40;46.70
21891;DHT22;11110;52.386;16.940;2022-09-09T10:45:13;32.40;46.50
21891;DHT22;11110;52.386;16.940;2022-09-09T10:48:09;32.40;45.40
21891;DHT22;11110;52.386;16.940;2022-09-09T10:50:50;32.50;46.10
21891;DHT22;11110;52.386;16.940;2022-09-09T10:53:37;32.50;46.00
21891;DHT22;11110;52.386;16.940;2022-09-09T10:56:15;32.60;46.00
21891;DHT22;11110;52.386;16.940;2022-09-09T10:58:47;32.60;46.00
21891;DHT22;11110;52.386;16.940;2022-09-09T11:01:25;32.60;45.40
21891;DHT22;11110;52.386;16.940;2022-09-09T11:04:00;32.70;45.80
21891;DHT22;11110;52.386;16.940;2022-09-09T11:06:34;32.80;45.70
21891;DHT22;11110;52.386;16.940;2022-09-09T11:09:05;32.80;45.70
21891;DHT22;11110;52.386;16.940;2022-09-09T11:11:42;32.80;45.10
21891;DHT22;11110;52.386;16.940;2022-09-09T11:14:18;32.90;44.80
21891;DHT22;11110;52.386;16.940;2022-09-09T11:16:50;32.80;44.60
21891;DHT22;11110;52.386;16.940;2022-09-09T11:19:28;32.90;45.00
21891;DHT22;11110;52.386;16.940;2022-09-09T11:22:00;33.00;44.50
21891;DHT22;11110;52.386;16.940;2022-09-09T11:24:33;33.00;43.50
21891;DHT22;11110;52.386;16.940;2022-09-09T11:27:09;33.00;43.30
21891;DHT22;11110;52.386;16.940;2022-09-09T11:30:02;33.10;42.30
21891;DHT22;11110;52.386;16.940;2022-09-09T11:32:46;33.20;42.40
21891;DHT22;11110;52.386;16.940;2022-09-09T11:35:30;33.20;42.10
21891;DHT22;11110;52.386;16.940;2022-09-09T11:38:15;33.20;42.40
21891;DHT22;11110;52.386;16.940;2022-09-09T11:40:45;33.30;42.40
21891;DHT22;11110;52.386;16.940;2022-09-09T11:43:16;33.30;42.80
21891;DHT22;11110;52.386;16.940;2022-09-09T11:45:52;33.40;42.40
21891;DHT22;11110;52.386;16.940;2022-09-09T11:48:33;33.40;41.90
21891;DHT22;11110;52.386;16.940;2022-09-09T11:51:08;33.40;41.50
21891;DHT22;11110;52.386;16.940;2022-09-09T11:53:52;33.60;41.30
21891;DHT22;11110;52.386;16.940;2022-09-09T11:56:27;33.60;41.30
21891;DHT22;11110;52.386;16.940;2022-09-09T11:59:00;33.60;41.00
21891;DHT22;11110;52.386;16.940;2022-09-09T12:01:35;33.60;41.00
21891;DHT22;11110;52.386;16.940;2022-09-09T12:04:29;33.60;41.20
21891;DHT22;11110;52.386;16.940;2022-09-09T12:07:03;33.60;41.50
21891;DHT22;11110;52.386;16.940;2022-09-09T12:09:43;33.70;41.90
21891;DHT22;11110;52.386;16.940;2022-09-09T12:12:31;33.70;41.20
21891;DHT22;11110;52.386;16.940;2022-09-09T12:15:22;33.80;41.60
21891;DHT22;11110;52.386;16.940;2022-09-09T12:17:54;33.80;41.60
21891;DHT22;11110;52.386;16.940;2022-09-09T12:20:33;33.80;41.30
21891;DHT22;11110;52.386;16.940;2022-09-09T12:23:13;33.80;41.60
21891;DHT22;11110;52.386;16.940;2022-09-09T12:28:45;34.00;42.00
21891;DHT22;11110;52.386;16.940;2022-09-09T12:31:20;34.00;41.60
21891;DHT22;11110;52.386;16.940;2022-09-09T12:33:49;34.10;41.50
21891;DHT22;11110;52.386;16.940;2022-09-09T12:36:23;34.20;41.50
21891;DHT22;11110;52.386;16.940;2022-09-09T12:38:55;34.30;40.80
21891;DHT22;11110;52.386;16.940;2022-09-09T12:41:27;34.30;40.50
21891;DHT22;11110;52.386;16.940;2022-09-09T12:44:04;34.40;40.60
21891;DHT22;11110;52.386;16.940;2022-09-09T12:46:35;34.50;40.70
21891;DHT22;11110;52.386;16.940;2022-09-09T12:49:04;34.50;40.70
21891;DHT22;11110;52.386;16.940;2022-09-09T12:51:33;34.50;41.50
21891;DHT22;11110;52.386;16.940;2022-09-09T12:54:04;34.60;41.20
21891;DHT22;11110;52.386;16.940;2022-09-09T12:56:32;34.70;40.50
21891;DHT22;11110;52.386;16.940;2022-09-09T12:59:03;34.70;42.00
21891;DHT22;11110;52.386;16.940;2022-09-09T13:01:32;34.70;42.50
21891;DHT22;11110;52.386;16.940;2022-09-09T13:04:01;34.80;41.30
21891;DHT22;11110;52.386;16.940;2022-09-09T13:06:31;34.90;39.60
21891;DHT22;11110;52.386;16.940;2022-09-09T13:09:01;35.00;39.00
21891;DHT22;11110;52.386;16.940;2022-09-09T13:11:34;35.00;38.70
21891;DHT22;11110;52.386;16.940;2022-09-09T13:14:05;35.10;38.90
21891;DHT22;11110;52.386;16.940;2022-09-09T13:16:35;35.10;38.70
21891;DHT22;11110;52.386;16.940;2022-09-09T13:19:14;35.20;38.90
21891;DHT22;11110;52.386;16.940;2022-09-09T13:21:44;35.20;39.60
21891;DHT22;11110;52.386;16.940;2022-09-09T13:24:27;35.20;39.00
21891;DHT22;11110;52.386;16.940;2022-09-09T13:27:00;35.30;38.40
21891;DHT22;11110;52.386;16.940;2022-09-09T13:29:31;35.30;38.00
21891;DHT22;11110;52.386;16.940;2022-09-09T13:32:04;35.30;37.90
21891;DHT22;11110;52.386;16.940;2022-09-09T13:34:34;35.40;37.20
21891;DHT22;11110;52.386;16.940;2022-09-09T13:37:05;35.30;37.30
21891;DHT22;11110;52.386;16.940;2022-09-09T13:39:35;35.30;37.60
21891;DHT22;11110;52.386;16.940;2022-09-09T13:42:19;35.40;37.40
21891;DHT22;11110;52.386;16.940;2022-09-09T13:44:49;35.30;37.90
21891;DHT22;11110;52.386;16.940;2022-09-09T13:47:20;35.30;37.60
21891;DHT22;11110;52.386;16.940;2022-09-09T13:49:48;35.30;37.40
21891;DHT22;11110;52.386;16.940;2022-09-09T13:52:18;35.30;37.50
21891;DHT22;11110;52.386;16.940;2022-09-09T13:54:48;35.30;37.50
21891;DHT22;11110;52.386;16.940;2022-09-09T13:57:20;35.30;37.60
21891;DHT22;11110;52.386;16.940;2022-09-09T13:59:49;35.30;38.00
21891;DHT22;11110;52.386;16.940;2022-09-09T14:02:31;35.30;38.00
21891;DHT22;11110;52.386;16.940;2022-09-09T14:05:00;35.30;37.60
21891;DHT22;11110;52.386;16.940;2022-09-09T14:07:29;35.30;37.60
21891;DHT22;11110;52.386;16.940;2022-09-09T14:09:57;35.30;36.80
21891;DHT22;11110;52.386;16.940;2022-09-09T14:12:28;35.30;36.80
21891;DHT22;11110;52.386;16.940;2022-09-09T14:14:56;35.40;36.80
21891;DHT22;11110;52.386;16.940;2022-09-09T14:17:26;35.30;36.50
21891;DHT22;11110;52.386;16.940;2022-09-09T14:19:57;35.40;36.50
21891;DHT22;11110;52.386;16.940;2022-09-09T14:22:26;35.40;36.30
21891;DHT22;11110;52.386;16.940;2022-09-09T14:24:55;35.40;36.10
21891;DHT22;11110;52.386;16.940;2022-09-09T14:27:25;35.40;36.40
21891;DHT22;11110;52.386;16.940;2022-09-09T14:29:55;35.40;36.50
21891;DHT22;11110;52.386;16.940;2022-09-09T14:32:24;35.40;36.10
21891;DHT22;11110;52.386;16.940;2022-09-09T14:34:53;35.40;36.40
21891;DHT22;11110;52.386;16.940;2022-09-09T14:37:22;35.40;36.10
21891;DHT22;11110;52.386;16.940;2022-09-09T14:39:51;35.30;35.90
21891;DHT22;11110;52.386;16.940;2022-09-09T14:42:20;35.30;36.00
21891;DHT22;11110;52.386;16.940;2022-09-09T14:44:49;35.30;36.10
21891;DHT22;11110;52.386;16.940;2022-09-09T14:47:18;35.30;37.00
21891;DHT22;11110;52.386;16.940;2022-09-09T14:49:46;35.30;36.40
21891;DHT22;11110;52.386;16.940;2022-09-09T14:52:16;35.30;36.30
21891;DHT22;11110;52.386;16.940;2022-09-09T14:54:45;35.30;36.30
21891;DHT22;11110;52.386;16.940;2022-09-09T14:57:14;35.30;36.50
21891;DHT22;11110;52.386;16.940;2022-09-09T14:59:42;35.30;36.20
21891;DHT22;11110;52.386;16.940;2022-09-09T15:02:10;35.30;35.90
21891;DHT22;11110;52.386;16.940;2022-09-09T15:04:42;35.30;36.00
21891;DHT22;11110;52.386;16.940;2022-09-09T15:07:14;35.30;36.20
21891;DHT22;11110;52.386;16.940;2022-09-09T15:09:42;35.30;36.00
21891;DHT22;11110;52.386;16.940;2022-09-09T15:12:11;35.30;36.50
21891;DHT22;11110;52.386;16.940;2022-09-09T15:14:41;35.30;36.50
21891;DHT22;11110;52.386;16.940;2022-09-09T15:17:09;35.30;36.60
21891;DHT22;11110;52.386;16.940;2022-09-09T15:19:38;35.30;36.50
21891;DHT22;11110;52.386;16.940;2022-09-09T15:22:08;35.30;36.90
21891;DHT22;11110;52.386;16.940;2022-09-09T15:24:36;35.30;36.60
21891;DHT22;11110;52.386;16.940;2022-09-09T15:27:04;35.30;36.80
21891;DHT22;11110;52.386;16.940;2022-09-09T15:29:33;35.30;36.60
21891;DHT22;11110;52.386;16.940;2022-09-09T15:32:02;35.20;36.50
21891;DHT22;11110;52.386;16.940;2022-09-09T15:34:30;35.20;36.70
21891;DHT22;11110;52.386;16.940;2022-09-09T15:36:59;35.20;36.60
21891;DHT22;11110;52.386;16.940;2022-09-09T15:39:28;35.20;37.40
21891;DHT22;11110;52.386;16.940;2022-09-09T15:41:59;35.20;36.90
21891;DHT22;11110;52.386;16.940;2022-09-09T15:44:28;35.10;36.80
21891;DHT22;11110;52.386;16.940;2022-09-09T15:46:56;35.10;37.20
21891;DHT22;11110;52.386;16.940;2022-09-09T15:49:26;35.10;37.70
21891;DHT22;11110;52.386;16.940;2022-09-09T15:51:56;35.00;36.80
21891;DHT22;11110;52.386;16.940;2022-09-09T15:54:25;35.00;37.10
21891;DHT22;11110;52.386;16.940;2022-09-09T15:56:57;35.00;37.20
21891;DHT22;11110;52.386;16.940;2022-09-09T15:59:27;35.00;37.20